sensor_id;sensor_type;location;lat;lon;timestamp;P1;durP1;ratioP1;P2;durP2;ratioP2
12177;SDS011;6152;48.728;9.256;2024-02-14T00:01:55;9.27;;;6.23;;
12177;SDS011;6152;48.728;9.256;2024-02-14T00:04:21;9.97;;;6.27;;
12177;SDS011;6152;48.728;9.256;2024-02-14T00:06:48;11.47;;;6.13;;
12177;SDS011;6152;48.728;9.256;2024-02-14T00:09:14;8.17;;;6.10;;
12177;SDS011;6152;48.728;9.256;2024-02-14T00:11:40;9.80;;;6.50;;
12177;SDS011;6152;48.728;9.256;2024-02-14T00:14:06;9.90;;;6.03;;
12177;SDS011;6152;48.728;9.256;2024-02-14T00:16:32;9.23;;;6.53;;
12177;SDS011;6152;48.728;9.256;2024-02-14T00:18:59;9.45;;;5.80;;
12177;SDS011;6152;48.728;9.256;2024-02-14T00:21:25;8.82;;;6.30;;
12177;SDS011;6152;48.728;9.256;2024-02-14T00:23:51;10.00;;;6.00;;
12177;SDS011;6152;48.728;9.256;2024-02-14T00:26:17;9.85;;;6.07;;
12177;SDS011;6152;48.728;9.256;2024-02-14T00:28:43;10.65;;;6.28;;
12177;SDS011;6152;48.728;9.256;2024-02-14T00:31:09;8.65;;;6.13;;
12177;SDS011;6152;48.728;9.256;2024-02-14T00:33:35;9.27;;;5.78;;
12177;SDS011;6152;48.728;9.256;2024-02-14T00:36:01;7.80;;;5.68;;
12177;SDS011;6152;48.728;9.256;2024-02-14T00:38:27;8.98;;;5.32;;
12177;SDS011;6152;48.728;9.256;2024-02-14T00:40:54;7.28;;;5.70;;
12177;SDS011;6152;48.728;9.256;2024-02-14T00:43:20;7.13;;;6.20;;
12177;SDS011;6152;48.728;9.256;2024-02-14T00:45:46;6.28;;;5.68;;
12177;SDS011;6152;48.728;9.256;2024-02-14T00:48:12;9.93;;;5.30;;
12177;SDS011;6152;48.728;9.256;2024-02-14T00:50:38;6.25;;;5.22;;
12177;SDS011;6152;48.728;9.256;2024-02-14T00:53:04;6.45;;;4.43;;
12177;SDS011;6152;48.728;9.256;2024-02-14T00:55:30;6.25;;;4.25;;
12177;SDS011;6152;48.728;9.256;2024-02-14T00:57:57;5.35;;;4.22;;
12177;SDS011;6152;48.728;9.256;2024-02-14T01:00:23;5.70;;;3.53;;
12177;SDS011;6152;48.728;9.256;2024-02-14T01:02:49;5.95;;;4.10;;
12177;SDS011;6152;48.728;9.256;2024-02-14T01:05:16;5.30;;;3.90;;
12177;SDS011;6152;48.728;9.256;2024-02-14T01:07:42;4.70;;;3.50;;
12177;SDS011;6152;48.728;9.256;2024-02-14T01:10:08;4.97;;;3.25;;
12177;SDS011;6152;48.728;9.256;2024-02-14T01:12:34;6.25;;;3.58;;
12177;SDS011;6152;48.728;9.256;2024-02-14T01:15:01;4.18;;;3.30;;
12177;SDS011;6152;48.728;9.256;2024-02-14T01:17:27;3.55;;;3.25;;
12177;SDS011;6152;48.728;9.256;2024-02-14T01:19:53;4.65;;;3.38;;
12177;SDS011;6152;48.728;9.256;2024-02-14T01:22:19;3.88;;;2.95;;
12177;SDS011;6152;48.728;9.256;2024-02-14T01:24:45;4.60;;;3.05;;
12177;SDS011;6152;48.728;9.256;2024-02-14T01:27:12;5.25;;;2.60;;
12177;SDS011;6152;48.728;9.256;2024-02-14T01:29:38;3.42;;;2.60;;
12177;SDS011;6152;48.728;9.256;2024-02-14T01:32:04;4.43;;;2.83;;
12177;SDS011;6152;48.728;9.256;2024-02-14T01:34:31;2.88;;;2.60;;
12177;SDS011;6152;48.728;9.256;2024-02-14T01:36:57;3.95;;;2.70;;
12177;SDS011;6152;48.728;9.256;2024-02-14T01:39:24;4.63;;;2.95;;
12177;SDS011;6152;48.728;9.256;2024-02-14T01:41:50;3.30;;;2.78;;
12177;SDS011;6152;48.728;9.256;2024-02-14T01:44:16;4.32;;;2.65;;
12177;SDS011;6152;48.728;9.256;2024-02-14T01:46:43;6.07;;;3.22;;
12177;SDS011;6152;48.728;9.256;2024-02-14T01:49:12;5.28;;;2.72;;
12177;SDS011;6152;48.728;9.256;2024-02-14T01:51:41;6.13;;;3.67;;
12177;SDS011;6152;48.728;9.256;2024-02-14T01:54:10;4.68;;;3.05;;
12177;SDS011;6152;48.728;9.256;2024-02-14T01:56:38;6.40;;;3.58;;
12177;SDS011;6152;48.728;9.256;2024-02-14T01:59:04;5.10;;;3.50;;
12177;SDS011;6152;48.728;9.256;2024-02-14T02:01:32;7.60;;;3.38;;
12177;SDS011;6152;48.728;9.256;2024-02-14T02:03:58;4.72;;;3.75;;
12177;SDS011;6152;48.728;9.256;2024-02-14T02:06:25;5.47;;;4.10;;
12177;SDS011;6152;48.728;9.256;2024-02-14T02:08:51;8.15;;;4.53;;
12177;SDS011;6152;48.728;9.256;2024-02-14T02:11:18;5.97;;;4.30;;
12177;SDS011;6152;48.728;9.256;2024-02-14T02:13:44;6.13;;;4.28;;
12177;SDS011;6152;48.728;9.256;2024-02-14T02:16:10;8.23;;;4.40;;
12177;SDS011;6152;48.728;9.256;2024-02-14T02:18:37;7.85;;;4.80;;
12177;SDS011;6152;48.728;9.256;2024-02-14T02:21:03;9.82;;;5.13;;
12177;SDS011;6152;48.728;9.256;2024-02-14T02:23:33;10.88;;;4.93;;
12177;SDS011;6152;48.728;9.256;2024-02-14T02:26:00;6.88;;;4.80;;
12177;SDS011;6152;48.728;9.256;2024-02-14T02:28:27;6.97;;;5.30;;
12177;SDS011;6152;48.728;9.256;2024-02-14T02:30:53;5.30;;;4.78;;
12177;SDS011;6152;48.728;9.256;2024-02-14T02:33:21;7.15;;;5.40;;
12177;SDS011;6152;48.728;9.256;2024-02-14T02:35:47;6.55;;;4.88;;
12177;SDS011;6152;48.728;9.256;2024-02-14T02:38:15;7.82;;;4.30;;
12177;SDS011;6152;48.728;9.256;2024-02-14T02:40:42;6.45;;;4.32;;
12177;SDS011;6152;48.728;9.256;2024-02-14T02:43:09;7.33;;;4.50;;
12177;SDS011;6152;48.728;9.256;2024-02-14T02:45:35;7.05;;;4.97;;
12177;SDS011;6152;48.728;9.256;2024-02-14T02:48:01;8.98;;;5.78;;
12177;SDS011;6152;48.728;9.256;2024-02-14T02:50:28;6.63;;;5.32;;
12177;SDS011;6152;48.728;9.256;2024-02-14T02:52:55;7.22;;;4.28;;
12177;SDS011;6152;48.728;9.256;2024-02-14T02:55:22;5.35;;;3.67;;
12177;SDS011;6152;48.728;9.256;2024-02-14T02:57:48;5.50;;;4.07;;
12177;SDS011;6152;48.728;9.256;2024-02-14T03:00:14;5.72;;;3.47;;
12177;SDS011;6152;48.728;9.256;2024-02-14T03:02:41;7.45;;;4.03;;
12177;SDS011;6152;48.728;9.256;2024-02-14T03:05:09;5.50;;;3.33;;
12177;SDS011;6152;48.728;9.256;2024-02-14T03:07:42;7.30;;;4.47;;
12177;SDS011;6152;48.728;9.256;2024-02-14T03:10:10;5.30;;;4.38;;
12177;SDS011;6152;48.728;9.256;2024-02-14T03:12:38;6.60;;;4.50;;
12177;SDS011;6152;48.728;9.256;2024-02-14T03:15:05;9.80;;;4.63;;
12177;SDS011;6152;48.728;9.256;2024-02-14T03:17:35;6.38;;;4.10;;
12177;SDS011;6152;48.728;9.256;2024-02-14T03:20:01;5.18;;;4.20;;
12177;SDS011;6152;48.728;9.256;2024-02-14T03:22:32;5.00;;;4.10;;
12177;SDS011;6152;48.728;9.256;2024-02-14T03:24:58;7.90;;;4.40;;
12177;SDS011;6152;48.728;9.256;2024-02-14T03:27:24;6.10;;;4.25;;
12177;SDS011;6152;48.728;9.256;2024-02-14T03:29:51;5.82;;;4.35;;
12177;SDS011;6152;48.728;9.256;2024-02-14T03:32:20;4.70;;;4.15;;
12177;SDS011;6152;48.728;9.256;2024-02-14T03:34:48;5.40;;;3.88;;
12177;SDS011;6152;48.728;9.256;2024-02-14T03:37:14;7.40;;;4.10;;
12177;SDS011;6152;48.728;9.256;2024-02-14T03:39:40;7.07;;;4.57;;
12177;SDS011;6152;48.728;9.256;2024-02-14T03:42:06;5.07;;;4.32;;
12177;SDS011;6152;48.728;9.256;2024-02-14T03:44:33;7.20;;;4.93;;
12177;SDS011;6152;48.728;9.256;2024-02-14T03:46:59;5.82;;;4.20;;
12177;SDS011;6152;48.728;9.256;2024-02-14T03:49:25;4.63;;;4.22;;
12177;SDS011;6152;48.728;9.256;2024-02-14T03:51:51;5.18;;;4.35;;
12177;SDS011;6152;48.728;9.256;2024-02-14T03:54:21;4.82;;;3.90;;
12177;SDS011;6152;48.728;9.256;2024-02-14T03:56:48;6.72;;;4.32;;
12177;SDS011;6152;48.728;9.256;2024-02-14T03:59:14;6.35;;;4.22;;
12177;SDS011;6152;48.728;9.256;2024-02-14T04:01:45;5.70;;;4.35;;
12177;SDS011;6152;48.728;9.256;2024-02-14T04:04:12;8.32;;;4.38;;
12177;SDS011;6152;48.728;9.256;2024-02-14T04:06:38;7.03;;;4.38;;
12177;SDS011;6152;48.728;9.256;2024-02-14T04:09:05;7.20;;;4.38;;
12177;SDS011;6152;48.728;9.256;2024-02-14T04:11:31;5.80;;;4.13;;
12177;SDS011;6152;48.728;9.256;2024-02-14T04:13:58;5.75;;;4.78;;
12177;SDS011;6152;48.728;9.256;2024-02-14T04:16:24;5.00;;;4.07;;
12177;SDS011;6152;48.728;9.256;2024-02-14T04:18:50;7.90;;;4.75;;
12177;SDS011;6152;48.728;9.256;2024-02-14T04:21:16;5.40;;;4.45;;
12177;SDS011;6152;48.728;9.256;2024-02-14T04:23:42;6.72;;;4.88;;
12177;SDS011;6152;48.728;9.256;2024-02-14T04:26:08;5.85;;;4.07;;
12177;SDS011;6152;48.728;9.256;2024-02-14T04:28:34;5.75;;;4.35;;
12177;SDS011;6152;48.728;9.256;2024-02-14T04:31:00;9.98;;;4.85;;
12177;SDS011;6152;48.728;9.256;2024-02-14T04:33:26;5.88;;;4.38;;
12177;SDS011;6152;48.728;9.256;2024-02-14T04:35:53;6.00;;;4.13;;
12177;SDS011;6152;48.728;9.256;2024-02-14T04:38:20;5.72;;;4.60;;
12177;SDS011;6152;48.728;9.256;2024-02-14T04:40:46;5.30;;;4.68;;
12177;SDS011;6152;48.728;9.256;2024-02-14T04:43:13;8.60;;;4.53;;
12177;SDS011;6152;48.728;9.256;2024-02-14T04:45:39;4.90;;;4.40;;
12177;SDS011;6152;48.728;9.256;2024-02-14T04:48:05;8.48;;;4.97;;
12177;SDS011;6152;48.728;9.256;2024-02-14T04:50:32;6.38;;;4.38;;
12177;SDS011;6152;48.728;9.256;2024-02-14T04:52:58;5.20;;;4.70;;
12177;SDS011;6152;48.728;9.256;2024-02-14T04:55:24;8.82;;;4.93;;
12177;SDS011;6152;48.728;9.256;2024-02-14T04:57:50;6.90;;;4.80;;
12177;SDS011;6152;48.728;9.256;2024-02-14T05:00:17;6.00;;;5.40;;
12177;SDS011;6152;48.728;9.256;2024-02-14T05:02:44;5.95;;;5.35;;
12177;SDS011;6152;48.728;9.256;2024-02-14T05:05:10;6.70;;;5.07;;
12177;SDS011;6152;48.728;9.256;2024-02-14T05:07:36;7.38;;;4.95;;
12177;SDS011;6152;48.728;9.256;2024-02-14T05:10:02;5.00;;;4.45;;
12177;SDS011;6152;48.728;9.256;2024-02-14T05:12:29;9.68;;;5.43;;
12177;SDS011;6152;48.728;9.256;2024-02-14T05:14:55;7.32;;;5.13;;
12177;SDS011;6152;48.728;9.256;2024-02-14T05:17:21;7.55;;;5.68;;
12177;SDS011;6152;48.728;9.256;2024-02-14T05:19:48;8.25;;;5.05;;
12177;SDS011;6152;48.728;9.256;2024-02-14T05:22:14;7.78;;;5.72;;
12177;SDS011;6152;48.728;9.256;2024-02-14T05:24:40;8.10;;;5.50;;
12177;SDS011;6152;48.728;9.256;2024-02-14T05:27:06;9.00;;;5.10;;
12177;SDS011;6152;48.728;9.256;2024-02-14T05:29:33;9.20;;;5.40;;
12177;SDS011;6152;48.728;9.256;2024-02-14T05:31:59;8.10;;;5.20;;
12177;SDS011;6152;48.728;9.256;2024-02-14T05:34:25;7.33;;;5.77;;
12177;SDS011;6152;48.728;9.256;2024-02-14T05:36:51;8.80;;;5.40;;
12177;SDS011;6152;48.728;9.256;2024-02-14T05:39:17;8.17;;;5.40;;
12177;SDS011;6152;48.728;9.256;2024-02-14T05:41:44;7.97;;;5.43;;
12177;SDS011;6152;48.728;9.256;2024-02-14T05:44:10;8.27;;;4.90;;
12177;SDS011;6152;48.728;9.256;2024-02-14T05:46:36;5.93;;;5.33;;
12177;SDS011;6152;48.728;9.256;2024-02-14T05:49:02;5.60;;;4.97;;
12177;SDS011;6152;48.728;9.256;2024-02-14T05:51:28;8.00;;;5.53;;
12177;SDS011;6152;48.728;9.256;2024-02-14T05:53:54;5.30;;;4.80;;
12177;SDS011;6152;48.728;9.256;2024-02-14T05:56:20;7.73;;;5.23;;
12177;SDS011;6152;48.728;9.256;2024-02-14T05:58:46;7.63;;;5.07;;
12177;SDS011;6152;48.728;9.256;2024-02-14T06:01:13;6.40;;;5.80;;
12177;SDS011;6152;48.728;9.256;2024-02-14T06:03:41;6.20;;;5.07;;
12177;SDS011;6152;48.728;9.256;2024-02-14T06:06:08;5.27;;;4.50;;
12177;SDS011;6152;48.728;9.256;2024-02-14T06:08:34;6.50;;;4.87;;
12177;SDS011;6152;48.728;9.256;2024-02-14T06:11:00;6.13;;;4.67;;
12177;SDS011;6152;48.728;9.256;2024-02-14T06:13:26;5.70;;;4.63;;
12177;SDS011;6152;48.728;9.256;2024-02-14T06:15:52;8.67;;;4.80;;
12177;SDS011;6152;48.728;9.256;2024-02-14T06:18:18;5.83;;;4.53;;
12177;SDS011;6152;48.728;9.256;2024-02-14T06:20:44;5.93;;;4.70;;
12177;SDS011;6152;48.728;9.256;2024-02-14T06:23:11;5.90;;;4.50;;
12177;SDS011;6152;48.728;9.256;2024-02-14T06:25:38;5.60;;;5.00;;
12177;SDS011;6152;48.728;9.256;2024-02-14T06:28:04;8.27;;;4.53;;
12177;SDS011;6152;48.728;9.256;2024-02-14T06:30:30;6.77;;;4.67;;
12177;SDS011;6152;48.728;9.256;2024-02-14T06:32:56;5.83;;;4.37;;
12177;SDS011;6152;48.728;9.256;2024-02-14T06:35:25;6.30;;;5.33;;
12177;SDS011;6152;48.728;9.256;2024-02-14T06:37:51;6.27;;;4.40;;
12177;SDS011;6152;48.728;9.256;2024-02-14T06:40:17;9.23;;;4.43;;
12177;SDS011;6152;48.728;9.256;2024-02-14T06:42:44;6.30;;;4.73;;
12177;SDS011;6152;48.728;9.256;2024-02-14T06:45:10;8.43;;;4.45;;
12177;SDS011;6152;48.728;9.256;2024-02-14T06:47:36;7.30;;;5.10;;
12177;SDS011;6152;48.728;9.256;2024-02-14T06:50:02;7.80;;;4.85;;
12177;SDS011;6152;48.728;9.256;2024-02-14T06:52:28;6.80;;;4.95;;
12177;SDS011;6152;48.728;9.256;2024-02-14T06:54:55;7.13;;;4.38;;
12177;SDS011;6152;48.728;9.256;2024-02-14T06:57:21;8.52;;;4.85;;
12177;SDS011;6152;48.728;9.256;2024-02-14T06:59:47;7.68;;;4.53;;
12177;SDS011;6152;48.728;9.256;2024-02-14T07:02:13;4.95;;;4.45;;
12177;SDS011;6152;48.728;9.256;2024-02-14T07:04:39;11.95;;;4.80;;
12177;SDS011;6152;48.728;9.256;2024-02-14T07:07:05;5.25;;;4.55;;
12177;SDS011;6152;48.728;9.256;2024-02-14T07:09:32;7.63;;;4.57;;
12177;SDS011;6152;48.728;9.256;2024-02-14T07:12:01;7.10;;;4.68;;
12177;SDS011;6152;48.728;9.256;2024-02-14T07:14:27;6.95;;;4.75;;
12177;SDS011;6152;48.728;9.256;2024-02-14T07:16:53;5.88;;;4.60;;
12177;SDS011;6152;48.728;9.256;2024-02-14T07:19:19;6.55;;;4.57;;
12177;SDS011;6152;48.728;9.256;2024-02-14T07:21:45;5.30;;;4.18;;
12177;SDS011;6152;48.728;9.256;2024-02-14T07:24:11;7.10;;;4.25;;
12177;SDS011;6152;48.728;9.256;2024-02-14T07:26:37;6.03;;;4.30;;
12177;SDS011;6152;48.728;9.256;2024-02-14T07:29:06;5.35;;;4.32;;
12177;SDS011;6152;48.728;9.256;2024-02-14T07:31:32;6.93;;;4.07;;
12177;SDS011;6152;48.728;9.256;2024-02-14T07:33:59;7.03;;;4.25;;
12177;SDS011;6152;48.728;9.256;2024-02-14T07:36:28;6.10;;;3.90;;
12177;SDS011;6152;48.728;9.256;2024-02-14T07:38:54;4.93;;;3.55;;
12177;SDS011;6152;48.728;9.256;2024-02-14T07:41:20;7.03;;;3.92;;
12177;SDS011;6152;48.728;9.256;2024-02-14T07:43:46;4.78;;;3.47;;
12177;SDS011;6152;48.728;9.256;2024-02-14T07:46:16;4.22;;;3.72;;
12177;SDS011;6152;48.728;9.256;2024-02-14T07:48:43;3.83;;;3.38;;
12177;SDS011;6152;48.728;9.256;2024-02-14T07:51:09;5.72;;;4.05;;
12177;SDS011;6152;48.728;9.256;2024-02-14T07:53:35;5.53;;;3.50;;
12177;SDS011;6152;48.728;9.256;2024-02-14T07:56:07;7.50;;;3.92;;
12177;SDS011;6152;48.728;9.256;2024-02-14T07:58:37;8.38;;;3.67;;
12177;SDS011;6152;48.728;9.256;2024-02-14T08:01:03;6.47;;;3.58;;
12177;SDS011;6152;48.728;9.256;2024-02-14T08:03:29;6.25;;;3.13;;
12177;SDS011;6152;48.728;9.256;2024-02-14T08:05:55;5.65;;;3.35;;
12177;SDS011;6152;48.728;9.256;2024-02-14T08:08:22;5.03;;;3.22;;
12177;SDS011;6152;48.728;9.256;2024-02-14T08:10:51;7.72;;;3.42;;
12177;SDS011;6152;48.728;9.256;2024-02-14T08:13:18;7.75;;;3.78;;
12177;SDS011;6152;48.728;9.256;2024-02-14T08:15:44;4.85;;;3.03;;
12177;SDS011;6152;48.728;9.256;2024-02-14T08:18:10;4.07;;;2.97;;
12177;SDS011;6152;48.728;9.256;2024-02-14T08:20:38;7.88;;;3.78;;
12177;SDS011;6152;48.728;9.256;2024-02-14T08:23:06;4.95;;;3.00;;
12177;SDS011;6152;48.728;9.256;2024-02-14T08:25:32;5.43;;;3.13;;
12177;SDS011;6152;48.728;9.256;2024-02-14T08:27:58;8.63;;;3.60;;
12177;SDS011;6152;48.728;9.256;2024-02-14T08:30:24;6.47;;;3.60;;
12177;SDS011;6152;48.728;9.256;2024-02-14T08:32:52;6.07;;;3.78;;
12177;SDS011;6152;48.728;9.256;2024-02-14T08:35:18;4.03;;;3.30;;
12177;SDS011;6152;48.728;9.256;2024-02-14T08:37:44;4.25;;;3.08;;
12177;SDS011;6152;48.728;9.256;2024-02-14T08:40:10;5.60;;;3.50;;
12177;SDS011;6152;48.728;9.256;2024-02-14T08:42:37;7.15;;;3.67;;
12177;SDS011;6152;48.728;9.256;2024-02-14T08:45:04;6.85;;;3.58;;
12177;SDS011;6152;48.728;9.256;2024-02-14T08:47:30;5.72;;;3.58;;
12177;SDS011;6152;48.728;9.256;2024-02-14T08:49:56;9.77;;;3.75;;
12177;SDS011;6152;48.728;9.256;2024-02-14T08:52:22;5.35;;;3.88;;
12177;SDS011;6152;48.728;9.256;2024-02-14T08:54:49;5.82;;;3.53;;
12177;SDS011;6152;48.728;9.256;2024-02-14T08:57:15;7.90;;;4.25;;
12177;SDS011;6152;48.728;9.256;2024-02-14T08:59:43;3.92;;;3.50;;
12177;SDS011;6152;48.728;9.256;2024-02-14T09:02:12;7.60;;;3.78;;
12177;SDS011;6152;48.728;9.256;2024-02-14T09:04:38;5.90;;;3.33;;
12177;SDS011;6152;48.728;9.256;2024-02-14T09:07:06;5.82;;;3.42;;
12177;SDS011;6152;48.728;9.256;2024-02-14T09:09:33;4.90;;;3.60;;
12177;SDS011;6152;48.728;9.256;2024-02-14T09:11:59;6.97;;;3.70;;
12177;SDS011;6152;48.728;9.256;2024-02-14T09:14:28;5.75;;;3.53;;
12177;SDS011;6152;48.728;9.256;2024-02-14T09:16:55;7.25;;;3.58;;
12177;SDS011;6152;48.728;9.256;2024-02-14T09:19:21;6.55;;;3.42;;
12177;SDS011;6152;48.728;9.256;2024-02-14T09:21:48;7.90;;;4.00;;
12177;SDS011;6152;48.728;9.256;2024-02-14T09:24:14;8.23;;;3.35;;
12177;SDS011;6152;48.728;9.256;2024-02-14T09:26:40;6.00;;;3.15;;
12177;SDS011;6152;48.728;9.256;2024-02-14T09:29:08;5.38;;;3.20;;
12177;SDS011;6152;48.728;9.256;2024-02-14T09:31:36;5.05;;;3.05;;
12177;SDS011;6152;48.728;9.256;2024-02-14T09:34:02;4.97;;;2.40;;
12177;SDS011;6152;48.728;9.256;2024-02-14T09:36:31;5.15;;;1.77;;
12177;SDS011;6152;48.728;9.256;2024-02-14T09:38:57;1.85;;;1.05;;
12177;SDS011;6152;48.728;9.256;2024-02-14T09:41:29;2.15;;;0.80;;
12177;SDS011;6152;48.728;9.256;2024-02-14T09:44:01;2.55;;;0.90;;
12177;SDS011;6152;48.728;9.256;2024-02-14T09:46:29;2.78;;;0.80;;
12177;SDS011;6152;48.728;9.256;2024-02-14T09:48:55;2.35;;;0.73;;
12177;SDS011;6152;48.728;9.256;2024-02-14T09:51:24;2.28;;;0.80;;
12177;SDS011;6152;48.728;9.256;2024-02-14T09:53:51;3.05;;;0.80;;
12177;SDS011;6152;48.728;9.256;2024-02-14T09:56:20;2.90;;;0.95;;
12177;SDS011;6152;48.728;9.256;2024-02-14T09:58:49;2.22;;;0.55;;
12177;SDS011;6152;48.728;9.256;2024-02-14T10:01:21;3.38;;;0.70;;
12177;SDS011;6152;48.728;9.256;2024-02-14T10:03:49;1.45;;;0.50;;
12177;SDS011;6152;48.728;9.256;2024-02-14T10:06:16;0.95;;;0.85;;
12177;SDS011;6152;48.728;9.256;2024-02-14T10:08:45;0.95;;;0.63;;
12177;SDS011;6152;48.728;9.256;2024-02-14T10:11:12;1.30;;;0.50;;
12177;SDS011;6152;48.728;9.256;2024-02-14T10:13:40;1.13;;;0.50;;
12177;SDS011;6152;48.728;9.256;2024-02-14T10:16:06;0.52;;;0.43;;
12177;SDS011;6152;48.728;9.256;2024-02-14T10:18:33;2.20;;;0.50;;
12177;SDS011;6152;48.728;9.256;2024-02-14T10:20:59;3.35;;;0.90;;
12177;SDS011;6152;48.728;9.256;2024-02-14T10:23:27;0.60;;;0.50;;
12177;SDS011;6152;48.728;9.256;2024-02-14T10:25:53;1.65;;;0.57;;
12177;SDS011;6152;48.728;9.256;2024-02-14T10:28:21;2.45;;;0.70;;
12177;SDS011;6152;48.728;9.256;2024-02-14T10:30:48;3.03;;;0.50;;
12177;SDS011;6152;48.728;9.256;2024-02-14T10:33:17;0.95;;;0.50;;
12177;SDS011;6152;48.728;9.256;2024-02-14T10:35:44;2.53;;;0.65;;
12177;SDS011;6152;48.728;9.256;2024-02-14T10:38:12;0.82;;;0.45;;
12177;SDS011;6152;48.728;9.256;2024-02-14T10:40:41;0.40;;;0.32;;
12177;SDS011;6152;48.728;9.256;2024-02-14T10:43:08;0.88;;;0.52;;
12177;SDS011;6152;48.728;9.256;2024-02-14T10:45:35;0.95;;;0.40;;
12177;SDS011;6152;48.728;9.256;2024-02-14T10:48:05;2.22;;;0.47;;
12177;SDS011;6152;48.728;9.256;2024-02-14T10:50:36;0.63;;;0.40;;
12177;SDS011;6152;48.728;9.256;2024-02-14T10:53:06;0.98;;;0.32;;
12177;SDS011;6152;48.728;9.256;2024-02-14T10:55:37;0.47;;;0.30;;
12177;SDS011;6152;48.728;9.256;2024-02-14T10:58:10;1.00;;;0.60;;
12177;SDS011;6152;48.728;9.256;2024-02-14T11:00:39;0.88;;;0.50;;
12177;SDS011;6152;48.728;9.256;2024-02-14T11:03:06;2.72;;;0.43;;
12177;SDS011;6152;48.728;9.256;2024-02-14T11:05:42;0.85;;;0.50;;
12177;SDS011;6152;48.728;9.256;2024-02-14T11:08:19;1.20;;;0.30;;
12177;SDS011;6152;48.728;9.256;2024-02-14T11:10:56;2.00;;;0.40;;
12177;SDS011;6152;48.728;9.256;2024-02-14T11:13:30;0.60;;;0.35;;
12177;SDS011;6152;48.728;9.256;2024-02-14T11:16:00;1.95;;;0.50;;
12177;SDS011;6152;48.728;9.256;2024-02-14T11:18:27;0.60;;;0.50;;
12177;SDS011;6152;48.728;9.256;2024-02-14T11:21:03;0.77;;;0.40;;
12177;SDS011;6152;48.728;9.256;2024-02-14T11:23:30;1.40;;;0.50;;
12177;SDS011;6152;48.728;9.256;2024-02-14T11:26:00;1.17;;;0.60;;
12177;SDS011;6152;48.728;9.256;2024-02-14T11:28:28;2.65;;;0.65;;
12177;SDS011;6152;48.728;9.256;2024-02-14T11:30:58;0.60;;;0.40;;
12177;SDS011;6152;48.728;9.256;2024-02-14T11:33:28;1.23;;;0.50;;
12177;SDS011;6152;48.728;9.256;2024-02-14T11:35:54;2.05;;;0.70;;
12177;SDS011;6152;48.728;9.256;2024-02-14T11:38:22;0.63;;;0.60;;
12177;SDS011;6152;48.728;9.256;2024-02-14T11:40:50;0.40;;;0.40;;
12177;SDS011;6152;48.728;9.256;2024-02-14T11:43:23;1.10;;;0.52;;
12177;SDS011;6152;48.728;9.256;2024-02-14T11:45:49;1.20;;;0.57;;
12177;SDS011;6152;48.728;9.256;2024-02-14T11:48:17;1.20;;;0.40;;
12177;SDS011;6152;48.728;9.256;2024-02-14T11:50:48;0.40;;;0.40;;
12177;SDS011;6152;48.728;9.256;2024-02-14T11:53:17;0.57;;;0.52;;
12177;SDS011;6152;48.728;9.256;2024-02-14T11:55:44;0.32;;;0.30;;
12177;SDS011;6152;48.728;9.256;2024-02-14T11:58:14;0.70;;;0.57;;
12177;SDS011;6152;48.728;9.256;2024-02-14T12:00:42;0.95;;;0.77;;
12177;SDS011;6152;48.728;9.256;2024-02-14T12:03:14;1.75;;;0.50;;
12177;SDS011;6152;48.728;9.256;2024-02-14T12:05:45;0.85;;;0.30;;
12177;SDS011;6152;48.728;9.256;2024-02-14T12:08:13;1.17;;;0.30;;
12177;SDS011;6152;48.728;9.256;2024-02-14T12:10:42;2.50;;;0.38;;
12177;SDS011;6152;48.728;9.256;2024-02-14T12:13:12;0.60;;;0.30;;
12177;SDS011;6152;48.728;9.256;2024-02-14T12:15:39;0.65;;;0.30;;
12177;SDS011;6152;48.728;9.256;2024-02-14T12:18:06;0.57;;;0.30;;
12177;SDS011;6152;48.728;9.256;2024-02-14T12:20:37;0.32;;;0.22;;
12177;SDS011;6152;48.728;9.256;2024-02-14T12:23:03;0.20;;;0.20;;
12177;SDS011;6152;48.728;9.256;2024-02-14T12:25:33;0.63;;;0.20;;
12177;SDS011;6152;48.728;9.256;2024-02-14T12:27:59;2.13;;;0.43;;
12177;SDS011;6152;48.728;9.256;2024-02-14T12:31:08;0.43;;;0.38;;
12177;SDS011;6152;48.728;9.256;2024-02-14T12:33:21;1.52;;;0.30;;
12177;SDS011;6152;48.728;9.256;2024-02-14T12:35:52;0.30;;;0.30;;
12177;SDS011;6152;48.728;9.256;2024-02-14T12:38:20;0.68;;;0.30;;
12177;SDS011;6152;48.728;9.256;2024-02-14T12:40:50;1.48;;;0.30;;
12177;SDS011;6152;48.728;9.256;2024-02-14T12:43:19;1.73;;;0.30;;
12177;SDS011;6152;48.728;9.256;2024-02-14T12:45:46;0.30;;;0.30;;
12177;SDS011;6152;48.728;9.256;2024-02-14T12:48:12;0.50;;;0.30;;
12177;SDS011;6152;48.728;9.256;2024-02-14T12:50:46;1.75;;;0.20;;
12177;SDS011;6152;48.728;9.256;2024-02-14T12:53:15;0.25;;;0.10;;
12177;SDS011;6152;48.728;9.256;2024-02-14T12:55:41;0.35;;;0.22;;
12177;SDS011;6152;48.728;9.256;2024-02-14T12:58:07;0.20;;;0.20;;
12177;SDS011;6152;48.728;9.256;2024-02-14T13:00:34;0.45;;;0.20;;
12177;SDS011;6152;48.728;9.256;2024-02-14T13:03:00;1.13;;;0.20;;
12177;SDS011;6152;48.728;9.256;2024-02-14T13:05:27;0.38;;;0.20;;
12177;SDS011;6152;48.728;9.256;2024-02-14T13:07:53;0.20;;;0.20;;
12177;SDS011;6152;48.728;9.256;2024-02-14T13:10:19;2.40;;;0.30;;
12177;SDS011;6152;48.728;9.256;2024-02-14T13:12:46;0.30;;;0.10;;
12177;SDS011;6152;48.728;9.256;2024-02-14T13:15:13;1.70;;;0.20;;
12177;SDS011;6152;48.728;9.256;2024-02-14T13:17:39;0.60;;;0.20;;
12177;SDS011;6152;48.728;9.256;2024-02-14T13:20:05;0.63;;;0.20;;
12177;SDS011;6152;48.728;9.256;2024-02-14T13:22:31;0.20;;;0.10;;
12177;SDS011;6152;48.728;9.256;2024-02-14T13:24:58;0.30;;;0.20;;
12177;SDS011;6152;48.728;9.256;2024-02-14T13:27:25;0.85;;;0.30;;
12177;SDS011;6152;48.728;9.256;2024-02-14T13:29:51;1.23;;;0.20;;
12177;SDS011;6152;48.728;9.256;2024-02-14T13:32:17;0.22;;;0.20;;
12177;SDS011;6152;48.728;9.256;2024-02-14T13:34:44;1.08;;;0.30;;
12177;SDS011;6152;48.728;9.256;2024-02-14T13:37:10;0.32;;;0.20;;
12177;SDS011;6152;48.728;9.256;2024-02-14T13:39:36;0.10;;;0.10;;
12177;SDS011;6152;48.728;9.256;2024-02-14T13:42:02;0.70;;;0.20;;
12177;SDS011;6152;48.728;9.256;2024-02-14T13:44:28;0.60;;;0.20;;
12177;SDS011;6152;48.728;9.256;2024-02-14T13:46:54;0.85;;;0.20;;
12177;SDS011;6152;48.728;9.256;2024-02-14T13:49:21;0.10;;;0.10;;
12177;SDS011;6152;48.728;9.256;2024-02-14T13:51:50;0.30;;;0.10;;
12177;SDS011;6152;48.728;9.256;2024-02-14T13:54:20;0.10;;;0.10;;
12177;SDS011;6152;48.728;9.256;2024-02-14T13:56:48;0.98;;;0.10;;
12177;SDS011;6152;48.728;9.256;2024-02-14T13:59:15;0.13;;;0.10;;
12177;SDS011;6152;48.728;9.256;2024-02-14T14:01:41;0.08;;;0.08;;
12177;SDS011;6152;48.728;9.256;2024-02-14T14:04:08;0.75;;;0.10;;
12177;SDS011;6152;48.728;9.256;2024-02-14T14:06:34;0.25;;;0.10;;
12177;SDS011;6152;48.728;9.256;2024-02-14T14:09:00;0.10;;;0.10;;
12177;SDS011;6152;48.728;9.256;2024-02-14T14:11:30;0.60;;;0.17;;
12177;SDS011;6152;48.728;9.256;2024-02-14T14:13:57;0.20;;;0.10;;
12177;SDS011;6152;48.728;9.256;2024-02-14T14:16:23;0.75;;;0.20;;
12177;SDS011;6152;48.728;9.256;2024-02-14T14:18:49;0.20;;;0.20;;
12177;SDS011;6152;48.728;9.256;2024-02-14T14:21:15;0.10;;;0.10;;
12177;SDS011;6152;48.728;9.256;2024-02-14T14:23:41;1.48;;;0.10;;
12177;SDS011;6152;48.728;9.256;2024-02-14T14:26:08;1.25;;;0.10;;
12177;SDS011;6152;48.728;9.256;2024-02-14T14:28:35;1.63;;;0.20;;
12177;SDS011;6152;48.728;9.256;2024-02-14T14:31:01;0.52;;;0.10;;
12177;SDS011;6152;48.728;9.256;2024-02-14T14:33:28;0.20;;;0.20;;
12177;SDS011;6152;48.728;9.256;2024-02-14T14:35:54;0.22;;;0.20;;
12177;SDS011;6152;48.728;9.256;2024-02-14T14:38:21;0.20;;;0.20;;
12177;SDS011;6152;48.728;9.256;2024-02-14T14:40:47;0.15;;;0.15;;
12177;SDS011;6152;48.728;9.256;2024-02-14T14:43:13;0.45;;;0.20;;
12177;SDS011;6152;48.728;9.256;2024-02-14T14:45:43;0.35;;;0.30;;
12177;SDS011;6152;48.728;9.256;2024-02-14T14:48:09;0.22;;;0.20;;
12177;SDS011;6152;48.728;9.256;2024-02-14T14:50:36;0.43;;;0.20;;
12177;SDS011;6152;48.728;9.256;2024-02-14T14:53:02;1.02;;;0.20;;
12177;SDS011;6152;48.728;9.256;2024-02-14T14:58:27;0.10;;;0.10;;
12177;SDS011;6152;48.728;9.256;2024-02-14T15:00:53;0.20;;;0.10;;
12177;SDS011;6152;48.728;9.256;2024-02-14T15:03:20;1.05;;;0.20;;